Somerset, Ohio
Current Conditions -  °F | °C
As of 8:54 AM on Thursday 29 Jan 2015 (Local Time) from KVTA Reporting Station
Overcast Overcast  
Wind Chill: 27°   Ceiling: 3500
Heat Index: 33°   Visibility: 10mi
Dew Point: 23°   Wind: 7mph
Humidity: 66%   Direction: 180°S
Pressure: 29.91"   Gusts: NA
Location:  39.81°N, 82.3°W
Report Text: KVTA 291354Z AUTO 18006KT 10SM SCT027 BKN035 OVC050 01/M05 A2991 RMK AO2 UPE46RAB46E47 SLP138 P0002 I1000 T00061050
Loading
Personal Weather Stations






























Interactive Weather Map New forecast layout! Learn more

10-Day Weather Forecast

Advertisements
Track Severe Weather on mobile